Meteo Giornale » Osservazioni meteo Australia » Geraldton
ore: 03:30 - Osservazioni Meteo Geraldton
Lat. 28° 48' S Lon. 114° 42' E Alt. 37 metri s.l.m.
12 °C
Sereno
Temp. 24 Ore
11 °C
22 °C
Nord/Nord-Est
14.8 Km/h
Dew point 11 °C
Umidità 93 %
Visibilità 10 Km
Il sole sorge alle ore 06:35
Il sole tramonta alle ore 18:06
| Data e Ora | Cielo e Fenomeni | T °C | DP °C | Um. % | Pres. hPa | Vis. km | Vento km/h | |
|---|---|---|---|---|---|---|---|---|
| Oggi h: 03:30 | Sereno | 12 | 11 | 93 | 1022 | 10 | N/NE 14.8 | |
| Oggi h: 03:00 | Sereno | 12 | 11 | 93 | 1022 | 10 | N/NE 16.7 | |
| Oggi h: 02:30 | Sereno | 12 | 11 | 93 | 1022 | 10 | N/NE 13 | |
| Oggi h: 02:00 | Sereno | 12 | 11 | 93 | 1022 | 10 | N/NE 11.1 | |
| Oggi h: 01:30 | Coperto | 13 | 12 | 93 | 1022 | 10 | N/NE 13 | |
| Oggi h: 01:00 | Poco Nuvoloso | 13 | 12 | 93 | 1022 | 10 | N/NE 13 | |
| Oggi h: 00:30 | Sereno | 13 | 12 | 93 | 1022 | 10 | N/NE 13 | |
| Oggi h: 00:00 | Sereno | 13 | 12 | 93 | 1022 | 10 | N/NE 13 | |
| Ieri h: 23:30 | Sereno | 14 | 13 | 93 | 1023 | 10 | N/NE 9.3 | |
| Ieri h: 23:00 | Sereno | 13 | 12 | 93 | 1023 | 10 | N/NE 11.1 | |
| Ieri h: 22:30 | Sereno | 14 | 12 | 87 | 1023 | 10 | N/NE 7.4 | |
| Ieri h: 22:00 | Sereno | 14 | 13 | 93 | 1023 | 10 | N 0 | |
| Ieri h: 21:30 | Sereno | 16 | 14 | 87 | 1023 | 10 | N 0 | |
| Ieri h: 21:00 | Coperto | 17 | 15 | 88 | 1023 | 10 | N 0 | |
| Ieri h: 20:30 | Pioggia | 17 | 15 | 88 | 1023 | 10 | N 3.7 | |
| Ieri h: 20:00 | Coperto | 17 | 15 | 88 | 1022 | 10 | N 5.5 | |
| Ieri h: 19:30 | Molto Nuvoloso | 17 | 15 | 88 | 1022 | 10 | N 5.5 | |
| Ieri h: 19:00 | Coperto | 17 | 15 | 88 | 1022 | 10 | N 5.5 | |
| Ieri h: 18:30 | Nuvoloso | 17 | 14 | 82 | 1022 | 10 | SO 7.4 | |
| Ieri h: 18:00 | Molto Nuvoloso | 18 | 14 | 77 | 1021 | 10 | SO 7.4 | |
| Ieri h: 17:30 | Nuvoloso | 19 | 14 | 72 | 1021 | 10 | O/SO 11.1 | |
| Ieri h: 17:00 | Poco Nuvoloso | 20 | 14 | 68 | 1021 | 10 | O/SO 13 | |
| Ieri h: 16:30 | Poco Nuvoloso | 21 | 14 | 64 | 1021 | 10 | O/SO 14.8 | |
| Ieri h: 16:00 | Sereno | 21 | 14 | 64 | 1020 | 10 | O 16.7 | |
| Ieri h: 15:30 | Sereno | 21 | 14 | 64 | 1020 | 10 | O/SO 16.7 | |
| Ieri h: 15:00 | Sereno | 21 | 15 | 68 | 1020 | 10 | O 16.7 | |
| Ieri h: 14:30 | Sereno | 21 | 14 | 64 | 1020 | 10 | O/SO 14.8 | |
| Ieri h: 14:00 | Sereno | 21 | 13 | 60 | 1020 | 10 | O/SO 16.7 | |
| Ieri h: 13:30 | Sereno | 21 | 13 | 60 | 1020 | 10 | O/SO 13 | |
| Ieri h: 13:00 | Sereno | 21 | 13 | 60 | 1020 | 10 | O 16.7 | |
| Ieri h: 12:30 | Sereno | 21 | 14 | 64 | 1020 | 10 | O 14.8 | |
| Ieri h: 12:00 | Poco Nuvoloso | 21 | 16 | 73 | 1021 | 10 | O 16.7 | |
| Ieri h: 11:30 | Sereno | 22 | 15 | 64 | 1021 | 10 | NO 7.4 | |
| Ieri h: 11:00 | Poco Nuvoloso | 20 | 14 | 68 | 1021 | 10 | O/NO 11.1 | |
| Ieri h: 10:30 | Nuvoloso | 19 | 14 | 72 | 1021 | 10 | O/SO 11.1 | |
| Ieri h: 10:00 | Molto Nuvoloso | 18 | 14 | 77 | 1021 | 10 | N 5.5 | |
| Ieri h: 09:30 | Nuvoloso | 18 | 17 | 93 | 1021 | 10 | N/NE 7.4 | |
| Ieri h: 09:00 | Poco Nuvoloso | 16 | 16 | 100 | 1021 | 10 | N 9.3 | |
| Ieri h: 08:30 | Sereno | 15 | 15 | 100 | 1021 | 10 | N/NE 11.1 | |
| Ieri h: 08:00 | Poco Nuvoloso | 14 | 13 | 93 | 1020 | 10 | N/NE 13 | |
| Ieri h: 07:30 | Sereno | 13 | 13 | 100 | 1020 | 10 | N/NE 14.8 | |
| Ieri h: 07:00 | Poco Nuvoloso | 12 | 12 | 100 | 1020 | 10 | N/NE 14.8 | |
| Ieri h: 06:30 | Molto Nuvoloso | 12 | 12 | 100 | 1020 | 10 | N/NE 14.8 | |
| Ieri h: 06:26 | Molto Nuvoloso | 12 | 12 | 100 | 1020 | 10 | N/NE 13 | |
| Ieri h: 06:12 | Foschia | 12 | 12 | 100 | 1019 | 1 | N/NE 13 | |
| Ieri h: 06:00 | Nebbia | 12 | 11 | 93 | 1019 | 0.8 | N/NE 14.8 | |
| Ieri h: 05:58 | Nebbia | 12 | 11 | 93 | 1019 | 0.9 | N/NE 14.8 | |
| Ieri h: 05:46 | Foschia | 12 | 11 | 93 | 1019 | 1 | N/NE 14.8 | |
| Ieri h: 05:30 | Nebbia | 11 | 11 | 100 | 1019 | 0.6 | N/NE 14.8 | |
| Ieri h: 05:17 | Nebbia | 11 | 11 | 100 | 1019 | 0.8 | N/NE 14.8 | |
| Ieri h: 05:15 | Foschia | 11 | 11 | 100 | 1019 | 1 | N/NE 14.8 | |
| Ieri h: 05:00 | Foschia | 11 | 10 | 93 | 1019 | 5 | N/NE 14.8 | |
| Ieri h: 04:30 | Poco Nuvoloso | 11 | 10 | 93 | 1019 | 6 | N/NE 13 | |
| Ieri h: 04:29 | Poco Nuvoloso | 11 | 10 | 93 | 1019 | 6 | N/NE 13 | |
| Ieri h: 04:00 | Sereno | 11 | 10 | 93 | 1019 | 10 | N/NE 14.8 | |



